createdAt,value
2023-03-17T00:00:43.751Z,100426.63
2023-03-17T00:03:25.892Z,100410.06
2023-03-17T00:05:59.032Z,100423.97
2023-03-17T00:08:28.738Z,100424.03
2023-03-17T00:10:56.448Z,100423.97
2023-03-17T00:13:24.162Z,100415.34
2023-03-17T00:15:56.209Z,100419.56
2023-03-17T00:18:24.191Z,100425.72
2023-03-17T00:20:52.696Z,100421.16
2023-03-17T00:23:22.449Z,100418.63
2023-03-17T00:25:50.455Z,100422.06
2023-03-17T00:28:24.008Z,100443.06
2023-03-17T00:31:01.260Z,100431.72
2023-03-17T00:33:33.456Z,100428.19
2023-03-17T00:36:01.590Z,100429.97
2023-03-17T00:38:29.910Z,100426.34
2023-03-17T00:40:58.432Z,100434.34
2023-03-17T00:43:25.755Z,100424.63
2023-03-17T00:45:53.041Z,100443.00
2023-03-17T00:48:22.305Z,100442.16
2023-03-17T00:50:50.726Z,100443.16
2023-03-17T00:53:20.715Z,100435.25
2023-03-17T00:55:49.124Z,100422.16
2023-03-17T00:58:29.346Z,100415.06
2023-03-17T01:00:56.796Z,100429.13
2023-03-17T01:03:25.080Z,100440.47
2023-03-17T01:06:55.980Z,100427.50
2023-03-17T01:09:26.588Z,100422.94
2023-03-17T01:11:55.308Z,100430.00
2023-03-17T01:14:22.939Z,100427.44
2023-03-17T01:16:50.899Z,100416.91
2023-03-17T01:19:18.199Z,100427.34
2023-03-17T01:21:46.664Z,100422.13
2023-03-17T01:24:14.746Z,100415.13
2023-03-17T01:26:41.920Z,100421.28
2023-03-17T01:29:09.133Z,100421.28
2023-03-17T01:31:36.607Z,100404.69
2023-03-17T01:40:57.125Z,100370.63
2023-03-17T01:44:03.422Z,100396.00
2023-03-17T01:51:20.409Z,100389.81
2023-03-17T01:53:53.020Z,100392.41
2023-03-17T01:56:21.163Z,100384.53
2023-03-17T02:02:12.662Z,100379.34
2023-03-17T02:04:43.110Z,100357.44
2023-03-17T02:07:11.739Z,100366.28
2023-03-17T02:09:42.785Z,100368.91
2023-03-17T02:12:12.439Z,100367.13
2023-03-17T02:14:40.660Z,100376.75
2023-03-17T02:17:09.474Z,100361.88
2023-03-17T02:19:40.683Z,100367.97
2023-03-17T02:22:13.457Z,100362.66
2023-03-17T02:24:50.093Z,100374.94
2023-03-17T02:27:23.901Z,100373.13
2023-03-17T02:29:54.394Z,100379.22
2023-03-17T02:32:23.232Z,100388.00
2023-03-17T02:34:52.294Z,100369.66
2023-03-17T02:37:22.526Z,100393.16
2023-03-17T02:39:53.702Z,100390.53
2023-03-17T02:42:23.258Z,100382.66
2023-03-17T02:44:51.154Z,100369.47
2023-03-17T02:47:20.595Z,100390.47
2023-03-17T02:49:50.416Z,100382.69
2023-03-17T02:52:19.668Z,100385.25
2023-03-17T02:54:54.620Z,100369.59
2023-03-17T02:57:31.028Z,100393.16
2023-03-17T02:59:59.492Z,100378.25
2023-03-17T03:02:27.940Z,100390.53
2023-03-17T03:04:56.684Z,100366.03
2023-03-17T03:07:24.604Z,100387.00
2023-03-17T03:09:52.710Z,100382.69
2023-03-17T03:12:20.763Z,100380.91
2023-03-17T03:14:50.141Z,100372.13
2023-03-17T03:17:18.994Z,100380.84
2023-03-17T03:19:47.016Z,100372.19
2023-03-17T03:22:14.687Z,100375.72
2023-03-17T03:24:43.057Z,100372.22
2023-03-17T03:27:11.339Z,100390.56
2023-03-17T03:29:39.279Z,100375.72
2023-03-17T03:32:08.135Z,100391.38
2023-03-17T03:34:36.392Z,100381.75
2023-03-17T03:37:05.559Z,100387.97
2023-03-17T03:39:37.760Z,100387.00
2023-03-17T03:42:08.922Z,100405.28
2023-03-17T03:44:41.116Z,100399.19
2023-03-17T03:47:10.158Z,100394.63
2023-03-17T03:49:39.006Z,100406.94
2023-03-17T03:52:08.012Z,100409.56
2023-03-17T03:54:38.526Z,100412.19
2023-03-17T03:57:09.055Z,100428.75
2023-03-17T03:59:39.255Z,100433.91
2023-03-17T04:02:09.721Z,100427.84
2023-03-17T04:04:38.940Z,100426.13
2023-03-17T04:07:08.321Z,100422.53
2023-03-17T04:09:38.372Z,100451.47
2023-03-17T04:12:11.181Z,100451.44
2023-03-17T04:14:47.434Z,100443.47
2023-03-17T04:17:17.160Z,100443.53
2023-03-17T04:19:47.746Z,100458.31
2023-03-17T04:22:16.163Z,100467.09
2023-03-17T04:24:44.762Z,100461.03
2023-03-17T04:27:16.093Z,100455.81
2023-03-17T04:29:44.557Z,100448.84
2023-03-17T04:32:15.103Z,100459.28
2023-03-17T04:34:43.238Z,100461.00
2023-03-17T04:37:11.432Z,100424.47
2023-03-17T04:39:38.868Z,100452.44
2023-03-17T04:42:06.897Z,100454.91
2023-03-17T04:44:34.206Z,100488.22
2023-03-17T04:47:01.566Z,100462.09
2023-03-17T04:49:28.895Z,100475.13
2023-03-17T04:52:02.416Z,100468.19
2023-03-17T04:54:30.941Z,100481.22
2023-03-17T04:56:59.328Z,100482.09
2023-03-17T04:59:28.421Z,100478.50
2023-03-17T05:01:59.201Z,100482.91
2023-03-17T05:04:31.759Z,100491.56
2023-03-17T05:07:00.132Z,100495.91
2023-03-17T05:09:28.865Z,100489.78
2023-03-17T05:11:56.393Z,100484.59
2023-03-17T05:14:28.169Z,100496.78
2023-03-17T05:17:00.193Z,100485.41
2023-03-17T05:19:31.110Z,100509.03
2023-03-17T05:22:01.839Z,100505.59
2023-03-17T05:24:29.086Z,100486.31
2023-03-17T05:26:56.233Z,100510.00
2023-03-17T05:29:26.913Z,100496.88
2023-03-17T05:31:54.175Z,100502.16
2023-03-17T05:34:21.542Z,100481.13
2023-03-17T05:36:49.035Z,100509.88
2023-03-17T05:39:16.833Z,100506.41
2023-03-17T05:41:44.275Z,100493.19
2023-03-17T05:44:11.627Z,100501.16
2023-03-17T05:46:38.761Z,100512.53
2023-03-17T05:49:06.333Z,100520.44
2023-03-17T05:51:35.743Z,100507.31
2023-03-17T05:54:04.823Z,100504.66
2023-03-17T05:56:34.013Z,100518.69
2023-03-17T05:59:02.153Z,100509.09
2023-03-17T06:01:32.807Z,100519.69
2023-03-17T06:04:02.043Z,100507.38
2023-03-17T06:06:33.062Z,100524.81
2023-03-17T06:09:07.993Z,100523.06
2023-03-17T06:11:35.522Z,100509.84
2023-03-17T06:14:03.189Z,100511.66
2023-03-17T06:16:34.604Z,100526.66
2023-03-17T06:19:02.577Z,100535.41
2023-03-17T06:21:30.413Z,100532.78
2023-03-17T06:23:58.219Z,100526.66
2023-03-17T06:26:26.622Z,100537.91
2023-03-17T06:28:56.894Z,100547.50
2023-03-17T06:31:24.382Z,100552.81
2023-03-17T06:33:51.771Z,100551.94
2023-03-17T06:36:19.024Z,100522.22
2023-03-17T06:38:46.386Z,100528.28
2023-03-17T06:41:14.028Z,100553.94
2023-03-17T06:43:41.537Z,100557.41
2023-03-17T06:46:08.896Z,100568.78
2023-03-17T06:48:36.347Z,100574.91
2023-03-17T06:51:03.519Z,100555.72
2023-03-17T06:53:30.746Z,100564.44
2023-03-17T06:55:58.354Z,100573.25
2023-03-17T06:58:25.632Z,100550.41
2023-03-17T07:00:54.337Z,100561.94
2023-03-17T07:03:41.586Z,100575.91
2023-03-17T07:06:09.125Z,100578.63
2023-03-17T07:08:36.790Z,100579.44
2023-03-17T07:11:04.884Z,100590.78
2023-03-17T07:13:35.791Z,100584.75
2023-03-17T07:16:04.152Z,100576.03
2023-03-17T07:18:34.603Z,100589.16
2023-03-17T07:21:02.492Z,100598.78
2023-03-17T07:23:30.570Z,100597.03
2023-03-17T07:25:57.947Z,100598.69
2023-03-17T07:28:25.159Z,100589.13
2023-03-17T07:30:52.749Z,100612.91
2023-03-17T07:33:23.802Z,100612.16
2023-03-17T07:35:52.276Z,100603.31
2023-03-17T07:38:20.189Z,100612.19
2023-03-17T07:40:49.320Z,100611.28
2023-03-17T07:43:18.012Z,100627.06
2023-03-17T07:45:47.016Z,100640.09
2023-03-17T07:48:14.889Z,100637.44
2023-03-17T07:50:42.873Z,100641.91
2023-03-17T07:53:10.340Z,100636.66
2023-03-17T07:55:39.145Z,100651.53
2023-03-17T07:58:06.663Z,100643.59
2023-03-17T08:00:34.885Z,100644.66
2023-03-17T08:03:10.277Z,100668.34
2023-03-17T08:05:38.271Z,100674.50
2023-03-17T08:08:06.964Z,100632.41
2023-03-17T08:10:34.723Z,100658.91
2023-03-17T08:13:02.378Z,100672.03
2023-03-17T08:15:31.495Z,100658.16
2023-03-17T08:17:58.757Z,100669.66
2023-03-17T08:20:25.971Z,100660.94
2023-03-17T08:22:53.172Z,100680.22
2023-03-17T08:25:20.350Z,100667.94
2023-03-17T08:27:47.616Z,100662.72
2023-03-17T08:30:16.662Z,100685.56
2023-03-17T08:32:44.572Z,100680.34
2023-03-17T08:35:16.204Z,100684.81
2023-03-17T08:37:45.237Z,100680.53
2023-03-17T08:40:17.215Z,100680.50
2023-03-17T08:42:48.951Z,100678.75
2023-03-17T08:45:18.536Z,100674.47
2023-03-17T08:47:47.092Z,100670.16
2023-03-17T08:50:23.458Z,100671.06
2023-03-17T08:52:52.105Z,100654.41
2023-03-17T08:55:19.757Z,100652.66
2023-03-17T08:57:47.528Z,100654.47
2023-03-17T09:00:20.584Z,100670.34
2023-03-17T09:02:48.445Z,100640.56
2023-03-17T09:05:17.749Z,100657.22
2023-03-17T09:07:45.104Z,100657.22
2023-03-17T09:10:13.944Z,100651.94
2023-03-17T09:12:41.780Z,100649.34
2023-03-17T09:15:09.647Z,100672.16
2023-03-17T09:17:36.844Z,100658.13
2023-03-17T09:20:06.586Z,100646.75
2023-03-17T09:22:33.890Z,100673.03
2023-03-17T09:25:01.046Z,100668.66
2023-03-17T09:27:28.302Z,100667.81
2023-03-17T09:29:56.313Z,100674.81
2023-03-17T09:32:23.645Z,100657.34
2023-03-17T09:34:51.738Z,100667.00
2023-03-17T09:37:19.013Z,100676.63
2023-03-17T09:39:46.556Z,100680.13
2023-03-17T09:42:42.398Z,100679.28
2023-03-17T09:45:31.346Z,100668.78
2023-03-17T09:48:13.207Z,100660.03
2023-03-17T09:50:57.860Z,100675.81
2023-03-17T09:53:34.859Z,100651.28
2023-03-17T09:56:23.661Z,100671.44
2023-03-17T09:59:08.818Z,100664.44
2023-03-17T10:01:37.481Z,100663.59
2023-03-17T10:04:05.348Z,100650.41
2023-03-17T10:06:40.835Z,100660.06
2023-03-17T10:09:38.125Z,100661.81
2023-03-17T10:12:11.480Z,100680.22
2023-03-17T10:14:58.577Z,100682.91
2023-03-17T10:17:32.782Z,100673.25
2023-03-17T10:20:13.809Z,100667.97
2023-03-17T10:22:53.865Z,100670.63
2023-03-17T10:25:34.377Z,100663.56
2023-03-17T10:28:16.785Z,100685.50
2023-03-17T10:30:44.264Z,100685.47
2023-03-17T10:33:12.969Z,100709.13
2023-03-17T10:35:40.801Z,100711.78
2023-03-17T10:38:20.179Z,100710.88
2023-03-17T10:40:58.477Z,100701.25
2023-03-17T10:43:30.540Z,100705.66
2023-03-17T10:46:03.860Z,100683.69
2023-03-17T10:48:32.444Z,100707.38
2023-03-17T10:50:59.834Z,100700.41
2023-03-17T10:53:28.630Z,100679.34
2023-03-17T10:56:09.014Z,100675.88
2023-03-17T10:58:49.316Z,100683.72
2023-03-17T11:01:29.748Z,100680.19
2023-03-17T11:03:58.017Z,100674.00
2023-03-17T11:06:38.138Z,100675.78
2023-03-17T11:09:10.514Z,100673.94
2023-03-17T11:11:49.300Z,100679.25
2023-03-17T11:14:19.282Z,100684.50
2023-03-17T11:16:55.118Z,100674.00
2023-03-17T11:19:44.483Z,100675.81
2023-03-17T11:22:18.251Z,100678.44
2023-03-17T11:25:11.857Z,100662.66
2023-03-17T11:27:59.362Z,100667.97
2023-03-17T11:30:48.116Z,100672.31
2023-03-17T11:33:36.450Z,100675.84
2023-03-17T11:36:18.743Z,100669.69
2023-03-17T11:38:55.027Z,100674.03
2023-03-17T11:41:41.934Z,100662.59
2023-03-17T11:44:47.709Z,100653.78
2023-03-17T11:47:36.635Z,100649.41
2023-03-17T11:50:20.187Z,100644.09
2023-03-17T11:52:56.656Z,100653.75
2023-03-17T11:55:36.596Z,100656.44
2023-03-17T11:58:10.787Z,100666.13
2023-03-17T12:00:46.132Z,100674.00
2023-03-17T12:03:23.514Z,100675.78
2023-03-17T12:05:56.433Z,100681.91
2023-03-17T12:08:56.672Z,100688.97
2023-03-17T12:11:29.237Z,100688.97
2023-03-17T12:14:28.114Z,100701.25
2023-03-17T12:17:01.534Z,100689.88
2023-03-17T12:19:39.295Z,100704.78
2023-03-17T12:22:14.316Z,100683.72
2023-03-17T12:25:16.708Z,100692.50
2023-03-17T12:28:11.333Z,100693.38
2023-03-17T12:31:06.008Z,100689.88
2023-03-17T12:34:10.455Z,100683.75
2023-03-17T12:36:40.623Z,100685.44
2023-03-17T12:39:12.776Z,100668.75
2023-03-17T12:42:01.998Z,100669.56
2023-03-17T12:44:46.627Z,100661.59
2023-03-17T12:47:51.542Z,100654.50
2023-03-17T12:50:37.318Z,100649.16
2023-03-17T12:53:12.709Z,100644.78
2023-03-17T12:55:42.431Z,100652.72
2023-03-17T12:58:33.872Z,100656.22
2023-03-17T13:01:30.140Z,100653.66
2023-03-17T13:04:04.482Z,100670.31
2023-03-17T13:06:40.074Z,100680.84
2023-03-17T13:09:34.297Z,100693.16
2023-03-17T13:12:03.759Z,100699.34
2023-03-17T13:14:43.933Z,100713.44
2023-03-17T13:17:17.859Z,100701.16
2023-03-17T13:20:08.709Z,100680.13
2023-03-17T13:22:59.024Z,100667.88
2023-03-17T13:25:36.768Z,100642.41
2023-03-17T13:28:13.064Z,100638.03
2023-03-17T13:30:40.194Z,100628.44
2023-03-17T13:33:10.616Z,100636.28
2023-03-17T13:35:46.868Z,100622.28
2023-03-17T13:38:33.364Z,100645.06
2023-03-17T13:41:17.035Z,100639.75
2023-03-17T13:43:53.011Z,100645.00
2023-03-17T13:46:47.484Z,100649.31
2023-03-17T13:49:26.830Z,100630.03
2023-03-17T13:52:15.298Z,100651.94
2023-03-17T13:54:49.185Z,100644.03
2023-03-17T13:57:24.499Z,100629.94
2023-03-17T13:59:51.600Z,100623.69
2023-03-17T14:02:21.761Z,100616.50
2023-03-17T14:05:06.461Z,100610.09
2023-03-17T14:08:21.866Z,100627.28
2023-03-17T14:10:57.440Z,100610.44
2023-03-17T14:13:42.326Z,100609.44
2023-03-17T14:16:17.054Z,100612.78
2023-03-17T14:18:56.410Z,100593.53
2023-03-17T14:21:33.887Z,100605.78
2023-03-17T14:24:06.783Z,100601.09
2023-03-17T14:26:34.308Z,100590.41
2023-03-17T14:29:04.025Z,100608.69
2023-03-17T14:31:31.916Z,100604.06
2023-03-17T14:34:00.787Z,100596.78
2023-03-17T14:36:32.521Z,100605.50
2023-03-17T14:38:59.755Z,100584.28
2023-03-17T14:41:29.190Z,100585.09
2023-03-17T14:44:01.719Z,100589.13
2023-03-17T14:46:35.658Z,100570.81
2023-03-17T14:49:21.776Z,100541.97
2023-03-17T14:51:53.655Z,100571.22
2023-03-17T14:54:24.438Z,100567.81
2023-03-17T14:57:02.451Z,100568.56
2023-03-17T14:59:34.323Z,100570.94
2023-03-17T15:02:21.709Z,100574.47
2023-03-17T15:04:58.847Z,100567.44
2023-03-17T15:07:46.458Z,100564.09
2023-03-17T15:10:19.904Z,100550.19
2023-03-17T15:12:48.748Z,100548.44
2023-03-17T15:15:22.184Z,100563.44
2023-03-17T15:17:56.316Z,100560.56
2023-03-17T15:20:24.202Z,100555.44
2023-03-17T15:23:00.222Z,100562.56
2023-03-17T15:25:43.130Z,100554.78
2023-03-17T15:28:15.627Z,100551.22
2023-03-17T15:30:47.632Z,100557.50
2023-03-17T15:33:22.593Z,100558.34
2023-03-17T15:35:50.849Z,100557.50
2023-03-17T15:38:18.181Z,100558.22
2023-03-17T15:40:45.852Z,100546.91
2023-03-17T15:43:17.585Z,100556.56
2023-03-17T15:45:46.265Z,100552.19
2023-03-17T15:48:24.460Z,100545.28
2023-03-17T15:50:53.012Z,100539.19
2023-03-17T15:53:20.306Z,100534.56
2023-03-17T15:55:49.656Z,100537.81
2023-03-17T15:58:17.204Z,100530.25
2023-03-17T16:00:47.483Z,100501.44
2023-03-17T16:03:45.636Z,100543.28
2023-03-17T16:06:17.163Z,100537.88
2023-03-17T16:08:44.686Z,100534.38
2023-03-17T16:11:18.002Z,100538.00
2023-03-17T16:13:46.650Z,100534.41
2023-03-17T16:16:38.528Z,100541.78
2023-03-17T16:19:10.597Z,100548.19
2023-03-17T16:21:37.788Z,100527.50
2023-03-17T16:24:06.439Z,100552.72
2023-03-17T16:26:34.507Z,100566.97
2023-03-17T16:29:01.676Z,100567.84
2023-03-17T16:31:32.097Z,100559.19
2023-03-17T16:33:59.615Z,100562.56
2023-03-17T16:36:27.374Z,100562.44
2023-03-17T16:38:54.790Z,100569.41
2023-03-17T16:41:27.848Z,100568.63
2023-03-17T16:44:00.392Z,100582.03
2023-03-17T16:46:34.323Z,100556.69
2023-03-17T16:49:02.263Z,100572.53
2023-03-17T16:51:29.316Z,100580.63
2023-03-17T16:53:56.567Z,100573.63
2023-03-17T16:56:25.607Z,100571.13
2023-03-17T16:58:53.055Z,100571.13
2023-03-17T17:01:24.054Z,100583.63
2023-03-17T17:03:54.130Z,100588.03
2023-03-17T17:06:23.418Z,100583.78
2023-03-17T17:08:52.011Z,100585.69
2023-03-17T17:11:20.207Z,100587.50
2023-03-17T17:13:50.439Z,100585.88
2023-03-17T17:16:27.084Z,100593.75
2023-03-17T17:18:54.852Z,100587.69
2023-03-17T17:21:22.752Z,100585.16
2023-03-17T17:23:52.699Z,100607.16
2023-03-17T17:26:24.823Z,100593.25
2023-03-17T17:28:53.268Z,100606.47
2023-03-17T17:31:20.781Z,100595.22
2023-03-17T17:33:48.527Z,100599.69
2023-03-17T17:36:17.546Z,100604.19
2023-03-17T17:38:45.708Z,100597.19
2023-03-17T17:41:13.954Z,100604.28
2023-03-17T17:43:41.444Z,100604.34
2023-03-17T17:46:15.810Z,100605.31
2023-03-17T17:48:43.550Z,100600.94
2023-03-17T17:51:10.789Z,100599.25
2023-03-17T17:53:37.969Z,100594.94
2023-03-17T17:56:17.535Z,100619.53
2023-03-17T17:58:46.201Z,100614.34
2023-03-17T18:01:20.237Z,100612.63
2023-03-17T18:03:47.711Z,100617.94
2023-03-17T18:06:16.018Z,100614.44
2023-03-17T18:08:43.874Z,100602.22
2023-03-17T18:11:11.031Z,100603.09
2023-03-17T18:13:39.245Z,100591.72
2023-03-17T18:16:10.285Z,100588.22
2023-03-17T18:18:40.889Z,100607.50
2023-03-17T18:21:08.436Z,100619.75
2023-03-17T18:23:36.782Z,100624.13
2023-03-17T18:26:06.223Z,100630.28
2023-03-17T18:28:34.224Z,100625.88
2023-03-17T18:31:18.353Z,100640.78
2023-03-17T18:33:47.683Z,100648.66
2023-03-17T18:36:14.940Z,100652.16
2023-03-17T18:38:42.284Z,100653.03
2023-03-17T18:41:11.333Z,100642.53
2023-03-17T18:43:39.479Z,100639.88
2023-03-17T18:46:09.037Z,100640.75
2023-03-17T18:48:37.060Z,100655.63
2023-03-17T18:51:04.379Z,100639.81
2023-03-17T18:53:34.245Z,100660.88
2023-03-17T18:56:02.282Z,100649.44
2023-03-17T18:58:29.517Z,100651.19
2023-03-17T19:01:02.225Z,100656.44
2023-03-17T19:03:32.873Z,100649.41
2023-03-17T19:06:14.038Z,100657.28
2023-03-17T19:08:42.224Z,100654.63
2023-03-17T19:11:12.120Z,100656.38
2023-03-17T19:13:39.557Z,100645.81
2023-03-17T19:16:11.136Z,100660.69
2023-03-17T19:18:42.858Z,100665.94
2023-03-17T19:21:14.431Z,100654.47
2023-03-17T19:23:42.353Z,100672.00
2023-03-17T19:26:10.913Z,100683.44
2023-03-17T19:28:38.587Z,100686.00
2023-03-17T19:31:06.515Z,100680.69
2023-03-17T19:33:33.785Z,100671.03
2023-03-17T19:36:08.753Z,100678.09
2023-03-17T19:38:36.644Z,100685.06
2023-03-17T19:41:04.994Z,100685.97
2023-03-17T19:43:40.267Z,100692.09
2023-03-17T19:46:09.152Z,100673.63
2023-03-17T19:48:37.726Z,100705.16
2023-03-17T19:51:05.576Z,100699.91
2023-03-17T19:53:32.993Z,100698.13
2023-03-17T19:56:00.558Z,100710.44
2023-03-17T19:58:28.209Z,100702.63
2023-03-17T20:00:56.311Z,100705.31
2023-03-17T20:03:26.191Z,100712.28
2023-03-17T20:05:53.984Z,100708.78
2023-03-17T20:08:22.753Z,100707.03
2023-03-17T20:10:56.192Z,100712.31
2023-03-17T20:13:23.891Z,100711.44
2023-03-17T20:15:55.891Z,100704.50
2023-03-17T20:18:24.343Z,100710.66
2023-03-17T20:20:54.294Z,100707.16
2023-03-17T20:23:23.133Z,100709.78
2023-03-17T20:25:52.614Z,100704.53
2023-03-17T20:28:21.702Z,100721.22
2023-03-17T20:30:51.131Z,100723.84
2023-03-17T20:33:19.308Z,100733.47
2023-03-17T20:35:48.685Z,100733.47
2023-03-17T20:38:16.506Z,100731.69
2023-03-17T20:40:44.214Z,100734.31
2023-03-17T20:43:11.530Z,100744.81
2023-03-17T20:45:39.558Z,100759.59
2023-03-17T20:48:10.815Z,100780.56
2023-03-17T20:50:42.615Z,100792.88
2023-03-17T20:53:10.597Z,100819.16
2023-03-17T20:55:37.931Z,100824.38
2023-03-17T20:58:06.248Z,100841.06
2023-03-17T21:00:33.817Z,100853.28
2023-03-17T21:03:01.622Z,100858.53
2023-03-17T21:05:30.034Z,100871.69
2023-03-17T21:07:58.245Z,100868.00
2023-03-17T21:10:25.701Z,100852.09
2023-03-17T21:12:52.929Z,100885.38
2023-03-17T21:15:20.226Z,100882.53
2023-03-17T21:17:47.438Z,100901.78
2023-03-17T21:20:14.950Z,100916.72
2023-03-17T21:22:42.291Z,100913.22
2023-03-17T21:25:11.154Z,100893.88
2023-03-17T21:27:39.993Z,100856.19
2023-03-17T21:30:12.719Z,100828.94
2023-03-17T21:32:40.989Z,100849.88
2023-03-17T21:35:08.835Z,100829.66
2023-03-17T21:37:42.108Z,100830.50
2023-03-17T21:40:16.047Z,100839.19
2023-03-17T21:42:44.084Z,100842.66
2023-03-17T21:45:11.731Z,100847.75
2023-03-17T21:47:41.394Z,100824.06
2023-03-17T21:50:09.460Z,100838.88
2023-03-17T21:52:37.407Z,100842.31
2023-03-17T21:55:07.629Z,100834.22
2023-03-17T21:57:35.074Z,100851.56
2023-03-17T22:00:02.454Z,100848.00
2023-03-17T22:02:53.736Z,100855.78
2023-03-17T22:05:21.485Z,100849.56
2023-03-17T22:07:50.551Z,100845.03
2023-03-17T22:10:23.143Z,100850.13
2023-03-17T22:12:52.663Z,100881.69
2023-03-17T22:15:20.084Z,100871.06
2023-03-17T22:17:47.505Z,100884.13
2023-03-17T22:20:15.466Z,100901.59
2023-03-17T22:22:43.042Z,100910.31
2023-03-17T22:25:10.292Z,100904.97
2023-03-17T22:27:37.840Z,100905.00
2023-03-17T22:30:05.485Z,100894.34
2023-03-17T22:32:32.926Z,100903.97
2023-03-17T22:35:00.389Z,100901.28
2023-03-17T22:37:28.635Z,100907.50
2023-03-17T22:39:56.140Z,100901.22
2023-03-17T22:42:23.680Z,100903.88
2023-03-17T22:44:51.399Z,100896.00
2023-03-17T22:47:19.347Z,100891.66
2023-03-17T22:49:47.277Z,100890.94
2023-03-17T22:52:15.100Z,100888.19
2023-03-17T22:54:42.570Z,100865.44
2023-03-17T22:57:15.272Z,100890.75
2023-03-17T22:59:45.282Z,100880.91
2023-03-17T23:02:18.621Z,100889.63
2023-03-17T23:04:46.155Z,100896.69
2023-03-17T23:07:53.053Z,100893.09
2023-03-17T23:10:23.504Z,100894.81
2023-03-17T23:12:54.091Z,100900.81
2023-03-17T23:15:21.910Z,100866.41
2023-03-17T23:17:50.222Z,100902.47
2023-03-17T23:20:19.449Z,100899.84
2023-03-17T23:22:47.368Z,100897.22
2023-03-17T23:25:17.030Z,100899.78
2023-03-17T23:27:45.190Z,100885.69
2023-03-17T23:30:13.228Z,100892.78
2023-03-17T23:32:42.018Z,100887.59
2023-03-17T23:35:11.061Z,100894.53
2023-03-17T23:37:38.441Z,100894.44
2023-03-17T23:40:06.973Z,100899.72
2023-03-17T23:42:34.242Z,100888.28
2023-03-17T23:45:02.278Z,100897.88
2023-03-17T23:47:29.692Z,100898.81
2023-03-17T23:49:57.436Z,100889.19
2023-03-17T23:52:24.805Z,100888.22
2023-03-17T23:54:52.462Z,100900.56
2023-03-17T23:57:19.795Z,100864.56
2023-03-17T23:59:50.136Z,100904.94
